Time;durP1;ratioP1;P1;durP2;ratioP2;P2;SDS_P1;SDS_P2;PMS_P1;PMS_P2;Temp;Humidity;BMP_temperature;BMP_pressure;BME280_temperature;BME280_humidity;BME280_pressure;Samples;Min_cycle;Max_cycle;Signal;HPM_P1;HPM_P2
2023/03/17 00:01:19;;;;;;;7.03;4.30;;;4.20;99.90;;;3.42;100.00;96982.81;5005376;28;20037;-38
2023/03/17 00:03:46;;;;;;;7.05;4.30;;;4.20;99.90;;;3.39;100.00;96978.50;5004268;28;20112;-38
2023/03/17 00:06:23;;;;;;;7.72;4.35;;;4.10;99.90;;;3.36;100.00;96977.69;4988604;28;20067;-38
2023/03/17 00:08:49;;;;;;;7.72;4.47;;;4.10;99.90;;;3.33;100.00;96975.13;5003211;28;20041;-37
2023/03/17 00:11:16;;;;;;;7.22;4.30;;;4.10;99.90;;;3.32;100.00;96968.19;5005921;28;20057;-38
2023/03/17 00:13:43;;;;;;;8.00;4.97;;;4.10;99.90;;;3.35;100.00;96955.09;5005788;28;21830;-38
2023/03/17 00:16:26;;;;;;;6.97;4.68;;;4.10;99.90;;;3.37;100.00;96961.16;5011733;28;20788;-38
2023/03/17 00:18:53;;;;;;;7.20;4.63;;;4.10;99.90;;;3.34;100.00;96936.00;5007882;28;20481;-38
2023/03/17 00:21:28;;;;;;;6.75;4.15;;;4.10;99.90;;;3.40;100.00;96938.50;4987987;28;20041;-38
2023/03/17 00:23:55;;;;;;;5.63;4.18;;;4.20;99.90;;;3.46;100.00;96939.28;5000246;28;20052;-38
2023/03/17 00:26:21;;;;;;;8.10;5.07;;;4.20;99.90;;;3.48;100.00;96933.16;5007046;28;20116;-38
2023/03/17 00:28:47;;;;;;;8.18;4.32;;;4.30;99.90;;;3.52;100.00;96927.03;5012574;28;20064;-37
2023/03/17 00:31:25;;;;;;;6.75;4.22;;;4.30;99.90;;;3.55;100.00;96933.94;5005312;28;23839;-38
2023/03/17 00:33:52;;;;;;;7.55;4.60;;;4.30;99.90;;;3.55;100.00;96932.19;5005039;28;20025;-38
2023/03/17 00:36:21;;;;;;;7.95;4.90;;;4.30;99.90;;;3.49;100.00;96926.22;5008968;28;20052;-37
2023/03/17 00:38:48;;;;;;;7.30;4.65;;;4.30;99.90;;;3.58;100.00;96937.34;5005638;28;20033;-38
2023/03/17 00:41:14;;;;;;;7.57;4.40;;;4.40;99.90;;;3.59;100.00;96930.41;4999528;28;20041;-38
2023/03/17 00:43:40;;;;;;;12.52;5.07;;;4.40;99.90;;;3.61;100.00;96923.41;5001336;28;20053;-37
2023/03/17 00:46:15;;;;;;;7.57;4.82;;;4.40;99.90;;;3.63;100.00;96925.09;5003792;28;20536;-37
2023/03/17 00:48:44;;;;;;;7.88;4.30;;;4.40;99.90;;;3.65;100.00;96922.47;4998462;28;20034;-37
2023/03/17 00:51:10;;;;;;;8.43;4.47;;;4.40;99.90;;;3.66;100.00;96918.09;5001225;28;23222;-38
2023/03/17 00:53:36;;;;;;;7.30;4.72;;;4.40;99.90;;;3.65;100.00;96912.03;5005299;28;20270;-37
2023/03/17 00:56:02;;;;;;;8.10;4.38;;;4.50;99.90;;;3.74;100.00;96921.44;5009383;28;20317;-38
2023/03/17 00:58:33;;;;;;;7.00;4.80;;;4.50;99.90;;;3.74;100.00;96916.22;5009084;28;20025;-38
2023/03/17 01:00:59;;;;;;;6.05;3.83;;;4.50;99.90;;;3.75;100.00;96917.94;5003240;28;20102;-38
2023/03/17 01:03:26;;;;;;;8.95;4.53;;;4.50;99.90;;;3.74;100.00;96905.81;5010877;28;20049;-38
2023/03/17 01:05:55;;;;;;;6.82;4.13;;;4.50;99.90;;;3.78;100.00;96910.06;5006512;28;20056;-38
2023/03/17 01:08:22;;;;;;;8.05;4.32;;;4.50;99.90;;;3.73;100.00;96886.69;4991555;28;20060;-37
2023/03/17 01:10:48;;;;;;;8.80;4.55;;;4.50;99.90;;;3.79;100.00;96896.16;5008004;28;20457;-38
2023/03/17 01:13:14;;;;;;;7.50;4.57;;;4.50;99.90;;;3.78;100.00;96886.59;5012095;28;20116;-38
2023/03/17 01:15:44;;;;;;;6.90;4.18;;;4.60;99.90;;;3.83;100.00;96889.97;5010215;28;20040;-38
2023/03/17 01:18:14;;;;;;;7.53;4.22;;;4.60;99.90;;;3.88;100.00;96887.31;5013405;28;20025;-38
2023/03/17 01:20:41;;;;;;;6.72;3.60;;;4.60;99.90;;;3.90;100.00;96894.19;5012416;28;20033;-38
2023/03/17 01:23:08;;;;;;;6.80;3.92;;;4.70;99.90;;;3.91;100.00;96898.53;5009222;28;20065;-37
2023/03/17 01:25:34;;;;;;;7.63;4.20;;;4.70;99.90;;;3.93;100.00;96891.53;5001094;28;20570;-38
2023/03/17 01:28:01;;;;;;;6.85;4.30;;;4.70;99.90;;;3.95;100.00;96891.50;5001977;28;20429;-38
2023/03/17 01:30:31;;;;;;;6.40;4.10;;;4.70;99.90;;;3.93;100.00;96888.94;5001893;28;20029;-38
2023/03/17 01:32:57;;;;;;;6.78;3.90;;;4.70;99.90;;;3.92;100.00;96881.97;5006955;28;20395;-38
2023/03/17 01:35:28;;;;;;;7.05;3.88;;;4.70;99.90;;;3.95;100.00;96875.88;5005378;28;20028;-38
2023/03/17 01:37:54;;;;;;;6.45;4.13;;;4.70;99.90;;;3.94;100.00;96882.81;5013372;28;20052;-38
2023/03/17 01:40:24;;;;;;;6.35;3.70;;;4.70;99.90;;;3.96;100.00;96878.41;5013003;28;20033;-38
2023/03/17 01:42:58;;;;;;;5.57;3.45;;;4.70;99.90;;;3.99;100.00;96878.38;5009119;28;20424;-38
2023/03/17 01:46:19;;;;;;;5.90;4.25;;;4.70;99.90;;;4.01;100.00;96881.78;5003739;28;20092;-38
2023/03/17 01:49:04;;;;;;;6.30;3.50;;;4.80;99.90;;;4.03;100.00;96867.88;5005118;28;20151;-37
2023/03/17 01:51:39;;;;;;;6.03;3.90;;;4.80;99.90;;;4.04;100.00;96875.69;5004039;28;20040;-38
2023/03/17 01:54:18;;;;;;;5.22;3.67;;;4.80;99.90;;;4.01;100.00;96867.91;5021403;22;20059;-37
2023/03/17 01:56:47;;;;;;;6.07;3.88;;;4.70;99.90;;;3.96;100.00;96857.53;5004247;28;20044;-37
2023/03/17 01:59:26;;;;;;;5.85;4.10;;;4.70;99.90;;;3.97;100.00;96853.22;5011936;28;20152;-37
2023/03/17 02:01:58;;;;;;;4.75;3.80;;;4.70;99.90;;;3.95;100.00;96857.59;5009882;28;20401;-37
2023/03/17 02:04:25;;;;;;;6.75;4.05;;;4.70;99.90;;;3.92;100.00;96855.03;5010678;28;20067;-37
2023/03/17 02:06:51;;;;;;;6.25;4.00;;;4.70;99.90;;;3.89;100.00;96860.31;5018807;28;20063;-37
2023/03/17 02:09:17;;;;;;;7.40;4.05;;;4.70;99.90;;;3.83;100.00;96861.28;5011394;28;20017;-37
2023/03/17 02:11:44;;;;;;;5.82;4.30;;;4.60;99.90;;;3.76;100.00;96868.34;5015008;28;20029;-37
2023/03/17 02:14:10;;;;;;;5.32;3.97;;;4.60;99.90;;;3.75;100.00;96866.66;5007259;28;20149;-37
2023/03/17 02:16:36;;;;;;;7.60;3.95;;;4.50;99.90;;;3.72;100.00;96866.69;5012070;28;21797;-37
2023/03/17 02:19:02;;;;;;;6.40;4.32;;;4.50;99.90;;;3.69;100.00;96864.16;5012101;28;20108;-37
2023/03/17 02:21:40;;;;;;;7.05;3.83;;;4.50;99.90;;;3.68;100.00;96853.72;5014099;28;20041;-37
2023/03/17 02:24:52;;;;;;;5.72;3.75;;;4.40;99.90;;;3.63;100.00;96862.50;5006373;28;20033;-37
2023/03/17 02:27:29;;;;;;;5.13;4.00;;;4.40;99.90;;;3.59;100.00;96865.22;5008116;28;20434;-37
2023/03/17 02:29:56;;;;;;;4.28;3.60;;;4.40;99.90;;;3.55;100.00;96864.41;5012955;28;20053;-37
2023/03/17 02:32:22;;;;;;;5.85;3.85;;;4.30;99.90;;;3.51;100.00;96873.16;5007594;28;20029;-37
2023/03/17 02:34:48;;;;;;;5.15;3.83;;;4.30;99.90;;;3.46;100.00;96872.38;5010558;28;20081;-37
2023/03/17 02:37:16;;;;;;;5.25;3.78;;;4.20;99.90;;;3.42;100.00;96868.09;5013962;28;20124;-37
2023/03/17 02:39:42;;;;;;;5.80;4.05;;;4.20;99.90;;;3.39;100.00;96853.38;5011566;28;20067;-37
2023/03/17 02:42:09;;;;;;;7.47;4.25;;;4.20;99.90;;;3.38;100.00;96862.09;5015489;28;20255;-37
2023/03/17 02:44:35;;;;;;;4.93;3.45;;;4.20;99.90;;;3.38;100.00;96856.88;5013505;28;20033;-37
2023/03/17 02:47:02;;;;;;;5.72;4.10;;;4.20;99.90;;;3.38;100.00;96853.41;5012639;28;20129;-37
2023/03/17 02:49:29;;;;;;;6.75;4.25;;;4.20;99.90;;;3.39;100.00;96850.78;5007059;28;20041;-37
2023/03/17 02:51:56;;;;;;;5.65;3.70;;;4.20;99.90;;;3.40;100.00;96851.63;5009748;28;20032;-37
2023/03/17 02:54:21;;;;;;;9.23;4.47;;;4.20;99.90;;;3.41;100.00;96846.41;5002667;28;20168;-37
2023/03/17 02:56:47;;;;;;;8.07;3.95;;;4.20;99.90;;;3.45;100.00;96842.00;5007954;28;20496;-37
2023/03/17 02:59:13;;;;;;;5.25;3.67;;;4.30;99.90;;;3.48;100.00;96844.53;5008049;28;20091;-37
2023/03/17 03:01:38;;;;;;;5.95;4.32;;;4.30;99.90;;;3.49;100.00;96848.84;5003619;28;20064;-37
2023/03/17 03:04:05;;;;;;;7.07;4.00;;;4.30;99.90;;;3.50;100.00;96842.78;5006808;28;20032;-38
2023/03/17 03:06:32;;;;;;;7.40;3.88;;;4.30;99.90;;;3.49;100.00;96840.19;5004795;28;20143;-38
2023/03/17 03:08:58;;;;;;;9.00;3.53;;;4.30;99.90;;;3.47;100.00;96842.81;5000176;28;20056;-38
2023/03/17 03:11:23;;;;;;;6.45;4.03;;;4.30;99.90;;;3.45;100.00;96842.00;5006119;28;20037;-38
2023/03/17 03:13:49;;;;;;;6.80;3.83;;;4.20;99.90;;;3.44;100.00;96838.50;5007471;28;20037;-38
2023/03/17 03:16:15;;;;;;;5.18;3.75;;;4.20;99.90;;;3.42;100.00;96834.22;5003620;28;20040;-38
2023/03/17 03:18:41;;;;;;;6.47;4.22;;;4.20;99.90;;;3.41;100.00;96840.31;5010668;28;20037;-38
2023/03/17 03:21:07;;;;;;;7.22;4.10;;;4.20;99.90;;;3.41;100.00;96841.19;5000546;28;20474;-38
2023/03/17 03:23:33;;;;;;;6.88;4.47;;;4.20;99.90;;;3.40;100.00;96836.84;5001436;28;20174;-38
2023/03/17 03:25:59;;;;;;;6.70;4.38;;;4.20;99.90;;;3.37;100.00;96833.44;4999362;28;20083;-38
2023/03/17 03:28:24;;;;;;;6.18;3.88;;;4.10;99.90;;;3.31;100.00;96829.19;5008144;28;20125;-38
2023/03/17 03:30:50;;;;;;;7.28;3.92;;;4.00;99.90;;;3.24;100.00;96831.03;5009026;28;20285;-38
2023/03/17 03:33:16;;;;;;;6.05;4.10;;;4.00;99.90;;;3.19;100.00;96835.47;5004615;28;20116;-38
2023/03/17 03:35:43;;;;;;;4.88;3.85;;;4.00;99.90;;;3.12;100.00;96830.38;4998339;28;20049;-38
2023/03/17 03:38:10;;;;;;;7.63;4.32;;;3.90;99.90;;;3.06;100.00;96828.75;5005503;28;20034;-38
2023/03/17 03:40:36;;;;;;;4.82;3.55;;;3.80;99.90;;;2.98;100.00;96825.38;5008342;28;20033;-38
2023/03/17 03:43:02;;;;;;;8.50;4.07;;;3.70;99.90;;;2.90;100.00;96835.09;5012207;28;20041;-38
2023/03/17 03:45:28;;;;;;;6.53;3.97;;;3.60;99.90;;;2.76;100.00;96822.28;5004049;28;20118;-38
2023/03/17 03:47:54;;;;;;;5.47;3.45;;;3.60;99.90;;;2.67;100.00;96833.69;5006553;28;20045;-38
2023/03/17 03:50:21;;;;;;;5.20;3.60;;;3.50;99.90;;;2.64;100.00;96838.94;5008842;28;20064;-38
2023/03/17 03:52:47;;;;;;;6.53;3.97;;;3.40;99.90;;;2.55;100.00;96844.25;5009602;28;20033;-38
2023/03/17 03:55:13;;;;;;;5.85;3.50;;;3.30;99.90;;;2.47;100.00;96837.41;5003094;28;20029;-38
2023/03/17 03:57:38;;;;;;;6.32;3.78;;;3.20;99.90;;;2.43;100.00;96832.28;5009088;28;20080;-38
2023/03/17 04:00:06;;;;;;;5.10;3.88;;;3.20;99.90;;;2.38;100.00;96821.94;5006035;28;20129;-38
2023/03/17 04:02:32;;;;;;;4.88;3.70;;;3.20;99.90;;;2.36;100.00;96830.66;5017097;28;20049;-38
2023/03/17 04:04:59;;;;;;;5.25;3.78;;;3.10;99.90;;;2.33;100.00;96834.16;5014648;28;20061;-38
2023/03/17 04:07:25;;;;;;;6.00;3.72;;;3.10;99.90;;;2.30;100.00;96829.00;5023186;28;20050;-38
2023/03/17 04:09:50;;;;;;;6.25;3.88;;;3.10;99.90;;;2.27;100.00;96823.84;5019351;28;20819;-38
2023/03/17 04:12:17;;;;;;;5.78;4.07;;;3.10;99.90;;;2.24;100.00;96821.25;5021834;28;20416;-38
2023/03/17 04:14:43;;;;;;;6.38;4.10;;;3.00;99.90;;;2.21;100.00;96816.97;5009423;28;20370;-38
2023/03/17 04:17:13;;;;;;;7.22;3.97;;;3.00;99.90;;;2.19;100.00;96815.25;5013385;28;20511;-38
2023/03/17 04:19:39;;;;;;;5.57;3.65;;;3.00;99.90;;;2.13;100.00;96818.81;5012565;28;20060;-39
2023/03/17 04:22:07;;;;;;;6.30;4.07;;;3.00;99.90;;;2.14;100.00;96817.94;5019018;28;20041;-38
2023/03/17 04:24:34;;;;;;;5.15;4.25;;;3.00;99.90;;;2.10;100.00;96816.25;5011466;28;20040;-38
2023/03/17 04:27:00;;;;;;;4.70;3.53;;;3.00;99.90;;;2.14;100.00;96814.50;5016030;28;20479;-38
2023/03/17 04:29:27;;;;;;;7.72;4.10;;;3.00;99.90;;;2.17;100.00;96806.63;5010236;28;20319;-38
2023/03/17 04:31:53;;;;;;;6.28;4.00;;;3.00;99.90;;;2.15;100.00;96810.97;5013391;28;20041;-38
2023/03/17 04:34:19;;;;;;;7.32;4.15;;;3.00;99.90;;;2.18;100.00;96811.81;5008989;28;20673;-38
2023/03/17 04:36:46;;;;;;;6.25;4.10;;;3.00;99.90;;;2.20;100.00;96811.78;5008100;28;20033;-38
2023/03/17 04:39:13;;;;;;;6.93;3.53;;;3.00;99.90;;;2.19;100.00;96805.72;5012350;28;20057;-38
2023/03/17 04:41:39;;;;;;;4.93;3.45;;;3.10;99.90;;;2.24;100.00;96805.66;5003112;28;20030;-38
2023/03/17 04:44:05;;;;;;;6.35;3.38;;;3.10;99.90;;;2.23;100.00;96801.34;5000264;28;20026;-38
2023/03/17 04:46:32;;;;;;;5.43;3.55;;;3.10;99.90;;;2.25;100.00;96799.59;5000303;28;20030;-38
2023/03/17 04:48:58;;;;;;;5.32;3.67;;;3.10;99.90;;;2.25;100.00;96804.78;5008078;28;20108;-38
2023/03/17 04:51:24;;;;;;;6.65;3.67;;;3.10;99.90;;;2.23;100.00;96804.81;5014469;28;20028;-38
2023/03/17 04:53:50;;;;;;;4.65;3.38;;;3.10;99.90;;;2.22;100.00;96795.25;5008939;28;20084;-38
2023/03/17 04:56:15;;;;;;;5.90;3.58;;;3.10;99.90;;;2.21;100.00;96803.13;5015029;28;20478;-38
2023/03/17 04:58:42;;;;;;;6.78;3.70;;;3.10;99.90;;;2.20;100.00;96797.03;5017661;28;20040;-38
2023/03/17 05:01:07;;;;;;;6.07;3.38;;;3.00;99.90;;;2.15;100.00;96788.41;5011960;28;20113;-38
2023/03/17 05:03:33;;;;;;;6.28;3.63;;;3.00;99.90;;;2.20;100.00;96796.19;5011647;28;20137;-38
2023/03/17 05:06:01;;;;;;;5.35;3.45;;;3.00;99.90;;;2.20;100.00;96799.63;5019898;28;20091;-38
2023/03/17 05:08:27;;;;;;;5.10;3.38;;;3.00;99.90;;;2.19;100.00;96794.44;5016095;28;20371;-38
2023/03/17 05:10:54;;;;;;;4.75;3.40;;;3.00;99.90;;;2.18;100.00;96785.78;5015939;28;20060;-38
2023/03/17 05:13:20;;;;;;;6.90;3.97;;;3.00;99.90;;;2.18;100.00;96792.75;5008482;28;20041;-39
2023/03/17 05:15:50;;;;;;;6.85;3.50;;;3.00;99.90;;;2.17;100.00;96794.50;5008225;28;20044;-38
2023/03/17 05:18:15;;;;;;;4.88;3.88;;;3.00;99.90;;;2.17;100.00;96791.00;5009942;28;20112;-38
2023/03/17 05:20:41;;;;;;;5.22;3.80;;;3.00;99.90;;;2.16;100.00;96787.56;5001657;28;20428;-39
2023/03/17 05:23:07;;;;;;;5.78;3.70;;;3.00;99.90;;;2.17;100.00;96788.41;5011735;28;20513;-38
2023/03/17 05:25:33;;;;;;;6.93;4.00;;;3.00;99.90;;;2.16;100.00;96794.50;5014385;28;20728;-38
2023/03/17 05:27:59;;;;;;;5.25;3.53;;;3.00;99.90;;;2.14;100.00;96799.72;5013347;28;20042;-38
2023/03/17 05:30:26;;;;;;;5.88;4.13;;;3.00;99.90;;;2.12;100.00;96798.91;5005329;28;21705;-38
2023/03/17 05:32:52;;;;;;;7.00;4.20;;;2.90;99.90;;;2.08;100.00;96803.28;5008012;28;20036;-38
2023/03/17 05:35:18;;;;;;;6.15;3.67;;;2.90;99.90;;;2.08;100.00;96805.00;5009209;28;20041;-38
2023/03/17 05:37:44;;;;;;;6.65;3.58;;;2.90;99.90;;;2.05;100.00;96808.50;5010780;28;20055;-38
2023/03/17 05:40:11;;;;;;;5.63;3.83;;;2.90;99.90;;;1.98;100.00;96801.66;5009393;28;20051;-38
2023/03/17 05:42:37;;;;;;;7.22;4.22;;;2.90;99.90;;;2.01;100.00;96806.84;5009086;28;20040;-38
2023/03/17 05:45:04;;;;;;;5.00;3.25;;;2.80;99.90;;;2.04;100.00;96806.78;5013954;28;20064;-38
2023/03/17 05:47:32;;;;;;;5.18;3.33;;;2.90;99.90;;;2.05;100.00;96803.31;5012670;28;20076;-38
2023/03/17 05:50:01;;;;;;;4.53;3.20;;;2.90;99.90;;;2.14;100.00;96804.09;5020287;28;20038;-38
2023/03/17 05:52:27;;;;;;;4.85;3.08;;;3.00;99.90;;;2.24;100.00;96797.84;5011792;28;20088;-38
2023/03/17 05:54:54;;;;;;;4.68;2.97;;;3.10;99.90;;;2.32;100.00;96796.03;5011022;28;20051;-38
2023/03/17 05:57:20;;;;;;;4.57;3.00;;;3.20;99.90;;;2.47;100.00;96787.97;5010555;28;20037;-38
2023/03/17 05:59:47;;;;;;;5.03;2.92;;;3.30;99.90;;;2.56;100.00;96786.97;5014271;28;20061;-38
2023/03/17 06:02:13;;;;;;;5.28;2.97;;;3.40;99.90;;;2.68;100.00;96793.75;5014798;28;20040;-38
2023/03/17 06:04:39;;;;;;;5.35;3.20;;;3.50;99.90;;;2.78;100.00;96795.34;5009913;28;20552;-38
2023/03/17 06:07:05;;;;;;;5.00;2.78;;;3.60;99.90;;;2.85;100.00;96794.34;5013950;28;20409;-43
2023/03/17 06:09:33;;;;;;;5.03;2.85;;;3.60;99.90;;;2.85;100.00;96780.44;5016320;28;20033;-38
2023/03/17 06:11:59;;;;;;;4.35;3.05;;;3.70;99.90;;;3.00;100.00;96793.25;5008094;28;20052;-38
2023/03/17 06:14:25;;;;;;;4.95;3.17;;;3.80;99.90;;;3.02;100.00;96791.47;5008398;28;20057;-38
2023/03/17 06:16:51;;;;;;;7.03;3.08;;;3.90;99.90;;;3.16;100.00;96804.25;5010989;28;20024;-38
2023/03/17 06:19:17;;;;;;;3.75;2.50;;;3.90;99.90;;;3.22;100.00;96817.16;5015589;28;20389;-38
2023/03/17 06:21:42;;;;;;;3.75;2.88;;;4.00;99.90;;;3.27;100.00;96806.69;5013356;28;20393;-38
2023/03/17 06:24:08;;;;;;;5.40;3.40;;;4.10;99.90;;;3.32;100.00;96809.19;5007232;28;20099;-38
2023/03/17 06:26:36;;;;;;;6.35;3.15;;;4.00;99.90;;;3.37;100.00;96809.97;5010513;28;20126;-38
2023/03/17 06:29:03;;;;;;;6.88;3.67;;;4.10;99.90;;;3.40;100.00;96818.59;5011778;28;20036;-38
2023/03/17 06:31:29;;;;;;;6.32;3.13;;;4.20;99.90;;;3.38;100.00;96814.31;5006687;28;20033;-38
2023/03/17 06:33:56;;;;;;;4.68;2.75;;;4.20;99.90;;;3.47;100.00;96813.28;5006107;28;20627;-38
2023/03/17 06:36:22;;;;;;;5.95;3.50;;;4.20;99.90;;;3.50;100.00;96813.22;5004743;28;20029;-38
2023/03/17 06:38:48;;;;;;;4.70;3.40;;;4.30;99.90;;;3.56;100.00;96813.97;5005076;28;20177;-38
2023/03/17 06:41:13;;;;;;;4.68;3.20;;;4.30;99.90;;;3.47;100.00;96785.47;5006852;28;20037;-38
2023/03/17 06:43:40;;;;;;;5.50;3.50;;;4.40;99.90;;;3.69;100.00;96809.38;5009590;28;20477;-38
2023/03/17 06:46:06;;;;;;;6.75;3.70;;;4.40;99.90;;;3.78;100.00;96809.19;5009295;28;20048;-38
2023/03/17 06:48:32;;;;;;;4.68;3.40;;;4.50;99.90;;;3.84;100.00;96805.63;5017902;28;20037;-38
2023/03/17 06:50:59;;;;;;;7.53;3.38;;;4.60;99.90;;;3.93;100.00;96799.34;5014681;28;20651;-38
2023/03/17 06:53:25;;;;;;;5.85;3.28;;;4.70;99.90;;;4.07;100.00;96797.31;5014779;28;20099;-38
2023/03/17 06:55:50;;;;;;;7.03;3.60;;;4.80;99.90;;;4.23;100.00;96797.00;5011898;28;20477;-38
2023/03/17 06:58:16;;;;;;;7.47;4.00;;;5.00;99.90;;;4.33;100.00;96788.09;5008069;28;20120;-38
2023/03/17 07:00:44;;;;;;;4.93;3.17;;;5.10;99.90;;;4.54;100.00;96790.22;5010953;28;20037;-38
2023/03/17 07:03:10;;;;;;;7.30;3.70;;;5.30;99.90;;;4.78;100.00;96806.22;5010799;28;20033;-38
2023/03/17 07:05:38;;;;;;;6.18;3.35;;;5.50;99.90;;;4.97;100.00;96809.22;5010195;28;20082;-38
2023/03/17 07:08:04;;;;;;;7.50;3.40;;;5.70;99.90;;;5.13;100.00;96809.72;5016091;28;20116;-38
2023/03/17 07:10:30;;;;;;;9.00;3.70;;;5.90;99.90;;;5.29;100.00;96798.00;5014150;28;20033;-38
2023/03/17 07:12:56;;;;;;;7.43;3.10;;;6.00;99.90;;;5.55;100.00;96802.53;5013320;28;20025;-39
2023/03/17 07:15:22;;;;;;;5.18;2.92;;;6.30;99.90;;;5.76;100.00;96818.56;5010229;28;20029;-38
2023/03/17 07:17:48;;;;;;;4.97;3.35;;;6.40;99.90;;;5.98;100.00;96826.72;5014323;28;20508;-38
2023/03/17 07:20:14;;;;;;;6.32;3.40;;;6.60;99.90;;;6.19;99.82;96827.88;5014444;28;20041;-38
2023/03/17 07:22:40;;;;;;;5.10;2.88;;;6.90;99.90;;;6.41;96.51;96816.78;5007953;28;20071;-38
2023/03/17 07:25:08;;;;;;;6.63;3.42;;;7.10;99.90;;;6.59;92.79;96818.00;5015444;28;20036;-38
2023/03/17 07:27:34;;;;;;;6.22;3.50;;;7.20;99.90;;;6.76;90.47;96826.16;5009738;28;20034;-38
2023/03/17 07:30:03;;;;;;;8.00;3.03;;;7.40;99.90;;;6.87;89.20;96821.47;5014728;28;20410;-38
2023/03/17 07:32:30;;;;;;;4.00;2.78;;;7.50;99.90;;;6.80;87.97;96804.22;5012708;28;20139;-38
2023/03/17 07:34:56;;;;;;;4.22;2.70;;;7.60;99.90;;;7.06;85.51;96826.13;5011949;28;20033;-38
2023/03/17 07:37:22;;;;;;;4.65;2.97;;;7.60;99.90;;;7.13;83.96;96830.25;5014675;28;20052;-38
2023/03/17 07:39:48;;;;;;;4.45;2.60;;;7.70;99.90;;;7.20;81.60;96828.31;5018671;28;20087;-38
2023/03/17 07:42:16;;;;;;;4.65;2.67;;;7.80;99.90;;;7.29;81.77;96829.78;5016410;28;20486;-38
2023/03/17 07:44:42;;;;;;;4.55;2.50;;;7.90;99.90;;;7.37;81.13;96830.34;5013584;28;20339;-38
2023/03/17 07:47:10;;;;;;;10.38;2.70;;;8.00;99.90;;;7.44;79.74;96827.47;5005023;28;21235;-39
2023/03/17 07:49:36;;;;;;;6.85;2.60;;;8.00;99.90;;;7.51;78.56;96830.75;5016356;28;20084;-38
2023/03/17 07:52:02;;;;;;;5.78;2.75;;;8.10;99.90;;;7.57;78.10;96821.81;5017172;28;20508;-38
2023/03/17 07:54:28;;;;;;;4.68;2.40;;;8.10;99.90;;;7.59;76.96;96814.75;5031345;22;20149;-37
2023/03/17 07:56:54;;;;;;;3.88;2.20;;;8.20;99.90;;;7.60;76.27;96813.84;5011444;28;20029;-38
2023/03/17 07:59:20;;;;;;;4.28;2.45;;;8.20;99.90;;;7.61;76.06;96813.78;5017921;28;20033;-38
2023/03/17 08:01:46;;;;;;;5.05;2.75;;;8.20;99.90;;;7.62;76.18;96817.28;5004397;28;20037;-38
2023/03/17 08:04:12;;;;;;;5.82;2.53;;;8.20;99.90;;;7.63;75.35;96813.75;5006678;28;20140;-38
2023/03/17 08:06:41;;;;;;;3.70;2.25;;;8.20;99.90;;;7.65;75.00;96819.78;4999799;28;20021;-38
2023/03/17 08:09:10;;;;;;;4.47;2.53;;;8.20;99.90;;;7.68;74.83;96819.69;4979001;28;20048;-38
2023/03/17 08:11:39;;;;;;;5.15;2.85;;;8.30;99.90;;;7.71;73.50;96822.19;4991406;28;20037;-38
2023/03/17 08:14:05;;;;;;;4.95;2.42;;;8.30;99.90;;;7.77;73.31;96826.38;4997498;28;20037;-38
2023/03/17 08:16:31;;;;;;;5.07;2.95;;;8.40;99.90;;;7.84;72.17;96836.63;4999419;28;20068;-38
2023/03/17 08:18:57;;;;;;;4.32;2.50;;;8.50;99.90;;;7.96;72.71;96826.59;4992195;28;20037;-38
2023/03/17 08:21:26;;;;;;;5.32;2.70;;;8.60;99.90;;;8.08;72.76;96826.16;4997925;28;20049;-39
2023/03/17 08:23:53;;;;;;;3.97;2.30;;;8.70;99.90;;;8.22;72.45;96820.41;4995114;28;20112;-38
2023/03/17 08:26:19;;;;;;;4.20;2.35;;;8.80;99.90;;;8.32;71.40;96811.25;5001824;28;20030;-38
2023/03/17 08:28:47;;;;;;;4.65;2.40;;;8.90;99.90;;;8.51;69.92;96818.50;4998992;28;20037;-38
2023/03/17 08:31:17;;;;;;;4.55;2.72;;;9.10;99.90;;;8.63;68.97;96820.63;4996731;28;20053;-39
2023/03/17 08:33:47;;;;;;;3.90;2.58;;;9.20;99.90;;;8.71;68.56;96815.09;4997865;28;20114;-39
2023/03/17 08:36:13;;;;;;;3.42;2.42;;;9.30;99.90;;;8.77;66.23;96813.09;4996830;28;20105;-38
2023/03/17 08:38:41;;;;;;;3.97;2.50;;;9.30;99.90;;;8.84;66.55;96807.59;4994037;28;20036;-38
2023/03/17 08:41:12;;;;;;;5.13;2.60;;;9.40;99.90;;;8.89;66.68;96803.84;4996056;28;20148;-38
2023/03/17 08:43:39;;;;;;;5.15;2.83;;;9.50;99.90;;;9.04;66.42;96806.78;4992411;28;20061;-39
2023/03/17 08:46:15;;;;;;;10.20;3.65;;;9.60;99.90;;;9.18;65.89;96809.72;4999034;28;20109;-39
2023/03/17 08:48:41;;;;;;;5.20;3.05;;;9.70;99.90;;;9.31;64.96;96808.31;4998326;28;20036;-38
2023/03/17 08:51:08;;;;;;;4.80;2.92;;;9.80;99.90;;;9.31;64.40;96792.50;4999954;28;20048;-38
2023/03/17 08:53:34;;;;;;;6.60;3.00;;;9.90;99.90;;;9.36;62.58;96781.78;5000716;28;20517;-38
2023/03/17 08:56:01;;;;;;;9.25;2.85;;;10.10;99.90;;;9.61;61.01;96797.38;4979652;28;20029;-38
2023/03/17 08:58:27;;;;;;;5.28;3.10;;;10.20;99.90;;;9.77;58.79;96802.84;5003612;28;20022;-38
2023/03/17 09:00:53;;;;;;;4.22;2.72;;;10.30;99.90;;;9.92;59.40;96798.69;4994227;28;20041;-38
2023/03/17 09:03:20;;;;;;;5.00;2.47;;;10.40;99.90;;;10.04;57.52;96797.31;5004014;28;20510;-39
2023/03/17 09:05:48;;;;;;;5.45;2.60;;;10.60;99.90;;;10.19;57.92;96801.88;4995295;28;20443;-38
2023/03/17 09:08:14;;;;;;;4.90;2.50;;;10.70;99.90;;;10.42;57.84;96794.75;5001123;28;20029;-39
2023/03/17 09:10:40;;;;;;;5.70;2.72;;;10.90;99.90;;;10.65;57.73;96791.91;5001300;28;20045;-39
2023/03/17 09:13:07;;;;;;;5.85;2.85;;;11.20;99.90;;;10.85;54.18;96792.75;4991658;28;20126;-39
2023/03/17 09:15:34;;;;;;;4.80;2.60;;;11.40;99.90;;;11.01;54.42;96795.50;4998581;28;20127;-38
2023/03/17 09:18:00;;;;;;;5.30;2.20;;;11.50;99.90;;;11.03;54.50;96767.25;4999856;28;20038;-38
2023/03/17 09:20:26;;;;;;;3.47;2.05;;;11.60;99.90;;;11.19;51.66;96793.75;4996230;28;20034;-38
2023/03/17 09:22:53;;;;;;;4.32;2.47;;;11.70;99.90;;;11.20;50.73;96783.13;4992819;28;20033;-39
2023/03/17 09:25:18;;;;;;;4.20;2.58;;;11.70;99.90;;;11.10;50.74;96773.09;4989565;28;20041;-38
2023/03/17 09:27:44;;;;;;;4.80;2.25;;;11.70;99.90;;;11.22;50.46;96802.38;4995039;28;20037;-39
2023/03/17 09:30:12;;;;;;;4.05;2.45;;;11.70;99.90;;;11.23;51.49;96790.91;4997738;28;20026;-39
2023/03/17 09:32:41;;;;;;;5.05;2.40;;;11.70;99.90;;;11.25;51.92;96794.31;4986168;28;20030;-38
2023/03/17 09:35:07;;;;;;;6.20;2.22;;;11.70;99.90;;;11.33;52.20;96788.63;4991208;28;20096;-38
2023/03/17 09:37:33;;;;;;;4.30;2.58;;;11.80;99.90;;;11.46;51.50;96799.44;4998876;28;20053;-39
2023/03/17 09:39:59;;;;;;;6.43;3.58;;;12.00;99.90;;;11.55;51.38;96793.69;4993897;28;20128;-38
2023/03/17 09:42:47;;;;;;;4.03;2.50;;;12.10;99.90;;;11.77;50.80;96788.19;4999032;28;20034;-38
2023/03/17 09:45:36;;;;;;;5.38;2.50;;;12.20;99.50;;;11.88;50.15;96785.00;4987093;28;20485;-38
2023/03/17 09:48:24;;;;;;;4.43;2.33;;;12.40;98.90;;;12.20;49.72;96796.53;4994792;28;20055;-39
2023/03/17 09:50:58;;;;;;;5.25;1.98;;;12.60;98.80;;;12.43;49.01;96794.44;4989184;28;20034;-39
2023/03/17 09:53:33;;;;;;;4.07;2.20;;;12.90;98.30;;;12.65;47.34;96798.56;4981781;28;20073;-39
2023/03/17 09:56:07;;;;;;;4.43;2.08;;;13.10;97.20;;;12.80;46.40;96803.88;4992430;28;20022;-39
2023/03/17 09:58:34;;;;;;;3.88;1.58;;;13.20;96.70;;;12.96;46.60;96793.28;4984069;28;20076;-39
2023/03/17 10:01:04;;;;;;;2.65;2.13;;;13.40;96.60;;;13.07;46.33;96799.78;4973570;28;20562;-39
2023/03/17 10:03:30;;;;;;;4.25;1.70;;;13.50;96.10;;;13.12;46.28;96795.94;4973305;28;20096;-39
2023/03/17 10:06:20;;;;;;;3.30;1.80;;;13.60;95.90;;;13.16;46.03;96796.59;4990557;28;20040;-39
2023/03/17 10:09:03;;;;;;;3.88;1.60;;;13.60;95.60;;;13.09;45.74;96796.09;4987008;28;20025;-39
2023/03/17 10:11:39;;;;;;;2.70;1.70;;;13.50;94.90;;;12.87;46.61;96775.28;4989339;28;20032;-39
2023/03/17 10:14:48;;;;;;;3.95;1.58;;;13.40;95.00;;;12.83;46.72;96787.00;4991244;28;20063;-39
2023/03/17 10:17:19;;;;;;;3.97;1.55;;;13.40;95.30;;;12.88;46.70;96787.56;4973127;28;20029;-39
2023/03/17 10:19:57;;;;;;;4.40;1.75;;;13.40;95.00;;;13.05;46.69;96783.97;4994577;28;20033;-39
2023/03/17 10:22:38;;;;;;;2.60;1.70;;;13.50;95.00;;;13.25;46.92;96774.03;4977838;28;20081;-38
2023/03/17 10:25:14;;;;;;;4.30;2.20;;;13.70;95.00;;;13.42;46.63;96773.94;4988453;28;20057;-39
2023/03/17 10:27:41;;;;;;;3.03;1.95;;;13.90;94.70;;;13.61;45.02;96767.56;4996773;28;20405;-39
2023/03/17 10:30:17;;;;;;;5.72;1.95;;;14.10;94.00;;;13.82;45.55;96770.72;4980922;28;20058;-39